Time;durP1;ratioP1;P1;durP2;ratioP2;P2;SDS_P1;SDS_P2;PMS_P1;PMS_P2;Temp;Humidity;BMP_temperature;BMP_pressure;BME280_temperature;BME280_humidity;BME280_pressure;Samples;Min_cycle;Max_cycle;Signal;HPM_P1;HPM_P2
2023/07/01 00:01:35;;;;;;;0.50;0.50;;;22.80;69.90;;;;;;5106297;28;20184;-82
2023/07/01 00:04:03;;;;;;;1.65;1.15;;;22.70;70.10;;;;;;5103571;28;20297;-81
2023/07/01 00:06:32;;;;;;;0.40;0.40;;;22.70;70.20;;;;;;5056691;27;1250860;-83
2023/07/01 00:09:03;;;;;;;0.80;0.40;;;22.70;70.20;;;;;;5103934;27;20198;-82
2023/07/01 00:11:32;;;;;;;0.63;0.50;;;22.70;70.20;;;;;;5098567;28;20189;-82
2023/07/01 00:14:01;;;;;;;1.15;1.05;;;22.70;70.20;;;;;;5102634;27;20194;-81
2023/07/01 00:16:30;;;;;;;0.38;0.35;;;22.70;70.70;;;;;;5106391;27;20192;-82
2023/07/01 00:18:59;;;;;;;1.05;0.95;;;22.60;70.70;;;;;;5109156;28;20288;-82
2023/07/01 00:21:27;;;;;;;0.40;0.40;;;22.60;70.70;;;;;;5097985;28;20284;-82
2023/07/01 00:23:56;;;;;;;0.65;0.65;;;22.60;70.70;;;;;;5102310;27;20221;-82
2023/07/01 00:26:25;;;;;;;0.47;0.47;;;22.60;70.80;;;;;;5097205;27;20186;-82
2023/07/01 00:28:54;;;;;;;0.73;0.55;;;22.50;70.70;;;;;;5100444;28;20204;-82
2023/07/01 00:31:22;;;;;;;0.52;0.52;;;22.50;70.80;;;;;;5098604;27;20201;-81
2023/07/01 00:33:52;;;;;;;0.40;0.38;;;22.50;71.00;;;;;;5100389;27;20271;-82
2023/07/01 00:36:22;;;;;;;0.80;0.75;;;22.50;71.10;;;;;;5108338;27;20193;-82
2023/07/01 00:38:50;;;;;;;1.15;0.65;;;22.40;71.10;;;;;;5092241;28;20280;-81
2023/07/01 00:41:20;;;;;;;1.13;0.77;;;22.40;71.30;;;;;;5108050;27;20664;-81
2023/07/01 00:43:49;;;;;;;0.47;0.47;;;22.40;71.40;;;;;;5092432;27;20602;-81
2023/07/01 00:46:17;;;;;;;0.65;0.65;;;22.40;71.60;;;;;;5110620;27;20196;-83
2023/07/01 00:48:46;;;;;;;0.57;0.57;;;22.30;71.60;;;;;;5100587;28;20242;-81
2023/07/01 00:51:16;;;;;;;1.10;0.95;;;22.30;71.60;;;;;;5100710;27;20189;-80
2023/07/01 00:53:44;;;;;;;0.57;0.57;;;22.30;71.70;;;;;;5115448;27;20196;-81
2023/07/01 00:56:13;;;;;;;0.35;0.35;;;22.30;71.90;;;;;;5117870;27;20200;-80
2023/07/01 00:58:41;;;;;;;0.43;0.43;;;22.30;72.20;;;;;;5110819;27;20197;-82
2023/07/01 01:01:14;;;;;;;0.52;0.52;;;22.20;72.10;;;;;;5116397;27;20553;-82
2023/07/01 01:03:53;;;;;;;0.63;0.63;;;22.20;72.20;;;;;;5106113;27;20204;-82
2023/07/01 01:06:36;;;;;;;0.95;0.95;;;22.20;72.30;;;;;;5109941;27;20223;-81
2023/07/01 01:09:10;;;;;;;1.13;1.00;;;22.20;72.50;;;;;;5116852;27;20189;-82
2023/07/01 01:11:44;;;;;;;0.40;0.40;;;22.20;72.80;;;;;;5106269;27;20245;-82
2023/07/01 01:14:13;;;;;;;2.30;0.50;;;22.20;72.90;;;;;;5100108;27;20639;-82
2023/07/01 01:16:42;;;;;;;1.67;1.58;;;22.10;72.90;;;;;;5105430;28;20666;-83
2023/07/01 01:19:21;;;;;;;0.68;0.68;;;22.10;72.90;;;;;;5104425;27;20193;-83
2023/07/01 01:22:00;;;;;;;0.90;0.90;;;22.10;73.20;;;;;;5100070;27;20190;-83
2023/07/01 01:24:34;;;;;;;0.60;0.60;;;22.10;73.60;;;;;;5113671;27;20244;-82
2023/07/01 01:27:06;;;;;;;0.35;0.35;;;22.00;73.60;;;;;;5101764;27;20189;-81
2023/07/01 01:29:36;;;;;;;0.80;0.75;;;22.00;73.70;;;;;;5116031;27;20668;-82
2023/07/01 01:32:07;;;;;;;4.95;1.65;;;21.90;73.60;;;;;;5102272;28;20193;-82
2023/07/01 01:34:35;;;;;;;0.40;0.40;;;22.00;73.70;;;;;;5100613;27;20196;-82
2023/07/01 01:37:11;;;;;;;1.90;1.08;;;21.90;74.00;;;;;;5096898;28;20193;-82
2023/07/01 01:39:44;;;;;;;1.00;0.88;;;21.90;73.80;;;;;;5099970;28;20192;-81
2023/07/01 01:42:26;;;;;;;1.17;0.80;;;21.90;74.00;;;;;;5094619;28;20638;-82
2023/07/01 01:44:58;;;;;;;1.13;1.08;;;21.90;74.30;;;;;;5102654;28;20217;-83
2023/07/01 01:47:30;;;;;;;0.50;0.50;;;21.80;74.30;;;;;;5108472;28;20188;-83
2023/07/01 01:50:10;;;;;;;2.10;1.38;;;21.80;74.40;;;;;;5094164;27;20694;-82
2023/07/01 01:52:41;;;;;;;0.30;0.30;;;21.80;74.60;;;;;;5108541;28;20208;-82
2023/07/01 01:55:13;;;;;;;0.60;0.60;;;21.80;74.90;;;;;;5091713;28;20323;-81
2023/07/01 01:57:42;;;;;;;1.15;0.85;;;21.80;75.20;;;;;;5109035;28;20185;-81
2023/07/01 02:00:13;;;;;;;0.63;0.60;;;21.70;75.10;;;;;;5103916;28;20193;-80
2023/07/01 02:02:42;;;;;;;0.30;0.30;;;21.70;75.00;;;;;;5091789;28;20193;-80
2023/07/01 02:05:10;;;;;;;0.40;0.40;;;21.70;75.00;;;;;;5105851;28;20221;-82
2023/07/01 02:07:39;;;;;;;0.70;0.70;;;21.70;75.00;;;;;;5100169;28;20220;-83
2023/07/01 02:10:09;;;;;;;0.55;0.50;;;21.70;75.00;;;;;;5104496;27;20784;-82
2023/07/01 02:12:38;;;;;;;0.65;0.60;;;21.70;75.20;;;;;;5098654;28;20233;-82
2023/07/01 02:15:08;;;;;;;1.65;0.50;;;21.60;75.00;;;;;;5104322;28;20224;-83
2023/07/01 02:17:38;;;;;;;1.95;1.17;;;21.60;75.30;;;;;;5094641;28;20201;-82
2023/07/01 02:20:09;;;;;;;0.38;0.30;;;21.70;75.30;;;;;;5097413;28;20189;-82
2023/07/01 02:22:38;;;;;;;0.68;0.52;;;21.60;75.30;;;;;;5102504;28;20216;-83
2023/07/01 02:25:07;;;;;;;0.45;0.45;;;21.60;75.50;;;;;;5090195;28;20241;-83
2023/07/01 02:27:35;;;;;;;0.35;0.35;;;21.60;75.60;;;;;;5092856;28;20209;-80
2023/07/01 02:30:04;;;;;;;0.30;0.30;;;21.50;75.80;;;;;;5112047;28;20196;-82
2023/07/01 02:32:32;;;;;;;0.50;0.50;;;21.50;75.90;;;;;;5096241;28;20197;-83
2023/07/01 02:35:02;;;;;;;0.43;0.43;;;21.50;75.90;;;;;;5101693;28;20201;-83
2023/07/01 02:37:31;;;;;;;0.35;0.35;;;21.50;76.00;;;;;;5102954;28;20200;-82
2023/07/01 02:39:59;;;;;;;0.68;0.68;;;21.40;76.10;;;;;;5108289;28;20192;-81
2023/07/01 02:42:28;;;;;;;0.28;0.28;;;21.40;76.10;;;;;;5101190;28;20189;-82
2023/07/01 02:44:56;;;;;;;0.40;0.40;;;21.40;76.60;;;;;;5095535;28;20232;-81
2023/07/01 02:47:24;;;;;;;0.43;0.43;;;21.40;76.70;;;;;;5100079;28;20203;-83
2023/07/01 02:49:53;;;;;;;0.57;0.38;;;21.30;76.70;;;;;;5103880;27;20224;-83
2023/07/01 02:52:23;;;;;;;0.50;0.50;;;21.30;76.70;;;;;;5103965;27;20190;-81
2023/07/01 02:54:52;;;;;;;0.40;0.30;;;21.30;76.90;;;;;;5098700;28;20197;-83
2023/07/01 02:57:23;;;;;;;0.70;0.63;;;21.30;77.40;;;;;;5099079;27;20205;-81
2023/07/01 02:59:51;;;;;;;0.20;0.20;;;21.30;77.60;;;;;;5113852;27;20563;-82
2023/07/01 03:02:20;;;;;;;0.80;0.77;;;21.30;77.60;;;;;;5101563;27;20194;-80
2023/07/01 03:04:48;;;;;;;4.57;2.58;;;21.30;78.60;;;;;;5098812;28;20260;-82
2023/07/01 03:07:16;;;;;;;0.50;0.47;;;21.30;77.70;;;;;;5105866;27;20220;-80
2023/07/01 03:09:47;;;;;;;0.55;0.55;;;21.20;77.80;;;;;;5114740;27;20681;-83
2023/07/01 03:12:15;;;;;;;2.70;0.60;;;21.20;77.90;;;;;;5105001;27;20625;-83
2023/07/01 03:14:44;;;;;;;0.30;0.30;;;21.30;78.20;;;;;;5104155;27;20198;-82
2023/07/01 03:17:12;;;;;;;0.80;0.77;;;21.20;78.40;;;;;;5106594;27;20197;-80
2023/07/01 03:19:41;;;;;;;0.40;0.40;;;21.20;78.70;;;;;;5112737;27;20185;-81
2023/07/01 03:22:10;;;;;;;3.13;0.52;;;21.20;78.80;;;;;;5112522;27;20192;-82
2023/07/01 03:24:38;;;;;;;2.20;1.15;;;21.20;78.90;;;;;;5101653;28;20224;-82
2023/07/01 03:27:08;;;;;;;0.50;0.50;;;21.20;79.00;;;;;;5093330;27;20543;-82
2023/07/01 03:29:37;;;;;;;0.40;0.40;;;21.20;79.00;;;;;;5108990;27;20197;-82
2023/07/01 03:32:06;;;;;;;0.82;0.77;;;21.20;79.60;;;;;;5105919;27;20203;-81
2023/07/01 03:34:34;;;;;;;0.70;0.70;;;21.20;79.80;;;;;;5099982;28;20554;-81
2023/07/01 03:37:03;;;;;;;1.13;1.02;;;21.30;80.00;;;;;;5096040;27;20196;-82
2023/07/01 03:39:32;;;;;;;3.38;1.23;;;21.20;80.80;;;;;;5104377;27;20734;-82
2023/07/01 03:42:00;;;;;;;0.30;0.30;;;21.30;81.10;;;;;;5103743;27;20284;-81
2023/07/01 03:44:30;;;;;;;0.38;0.38;;;21.20;81.10;;;;;;5106745;27;20270;-81
2023/07/01 03:46:58;;;;;;;0.40;0.40;;;21.30;81.10;;;;;;5094671;27;20193;-81
2023/07/01 03:49:30;;;;;;;0.70;0.70;;;21.30;80.80;;;;;;5109231;27;20710;-81
2023/07/01 03:51:58;;;;;;;0.68;0.55;;;21.30;81.00;;;;;;5095836;27;20200;-82
2023/07/01 03:54:27;;;;;;;1.50;1.05;;;21.40;81.00;;;;;;5096009;28;20194;-81
2023/07/01 03:56:55;;;;;;;0.90;0.60;;;21.40;81.10;;;;;;5095687;27;20587;-81
2023/07/01 03:59:24;;;;;;;0.30;0.30;;;21.40;81.00;;;;;;5095912;28;20196;-81
2023/07/01 04:01:54;;;;;;;0.70;0.70;;;21.40;81.30;;;;;;5091197;28;20551;-82
2023/07/01 04:04:23;;;;;;;2.95;0.82;;;21.40;81.90;;;;;;5102554;27;20195;-81
2023/07/01 04:06:52;;;;;;;2.08;1.50;;;21.50;82.50;;;;;;5091428;28;20229;-83
2023/07/01 04:09:20;;;;;;;1.65;1.15;;;21.50;83.00;;;;;;5095761;27;20198;-83
2023/07/01 04:11:49;;;;;;;1.40;0.45;;;21.50;83.10;;;;;;5106653;28;20197;-82
2023/07/01 04:14:17;;;;;;;0.57;0.57;;;21.60;82.80;;;;;;5096141;28;20198;-81
2023/07/01 04:16:46;;;;;;;0.65;0.52;;;21.60;82.70;;;;;;5098666;27;20953;-82
2023/07/01 04:19:18;;;;;;;0.55;0.55;;;21.70;82.40;;;;;;5101279;27;20195;-82
2023/07/01 04:21:46;;;;;;;0.75;0.73;;;21.70;82.20;;;;;;5102638;28;20212;-82
2023/07/01 04:24:15;;;;;;;2.22;0.88;;;21.70;82.20;;;;;;5112058;27;20189;-82
2023/07/01 04:26:43;;;;;;;0.57;0.57;;;21.80;82.00;;;;;;5093567;27;20225;-82
2023/07/01 04:29:12;;;;;;;0.40;0.40;;;21.80;81.90;;;;;;5102662;27;20197;-81
2023/07/01 04:31:41;;;;;;;0.40;0.40;;;21.90;81.80;;;;;;5112898;27;20706;-83
2023/07/01 04:34:09;;;;;;;3.15;1.10;;;21.90;81.60;;;;;;5111223;27;20193;-83
2023/07/01 04:36:39;;;;;;;0.68;0.68;;;22.00;81.50;;;;;;5097932;27;20200;-83
2023/07/01 04:39:09;;;;;;;1.45;1.27;;;22.00;81.60;;;;;;5114126;27;20184;-83
2023/07/01 04:41:37;;;;;;;0.60;0.45;;;22.10;81.50;;;;;;5103710;27;20650;-83
2023/07/01 04:44:06;;;;;;;0.30;0.30;;;22.10;81.30;;;;;;5097616;28;20194;-82
2023/07/01 04:46:34;;;;;;;2.42;0.82;;;22.20;81.20;;;;;;5099413;27;20213;-83
2023/07/01 04:49:03;;;;;;;1.30;0.75;;;22.30;81.60;;;;;;5101014;27;20220;-82
2023/07/01 04:51:31;;;;;;;0.40;0.40;;;22.30;81.50;;;;;;5095935;28;20201;-81
2023/07/01 04:54:04;;;;;;;0.40;0.40;;;22.40;81.40;;;;;;5091729;28;20468;-82
2023/07/01 04:56:32;;;;;;;0.95;0.95;;;22.40;81.50;;;;;;5095819;27;20306;-83
2023/07/01 04:59:01;;;;;;;0.68;0.52;;;22.50;81.30;;;;;;5105168;27;20201;-81
2023/07/01 05:01:29;;;;;;;0.65;0.50;;;22.60;81.20;;;;;;5104035;27;20797;-81
2023/07/01 05:03:58;;;;;;;0.30;0.30;;;22.60;81.10;;;;;;5110187;27;20235;-82
2023/07/01 05:06:26;;;;;;;0.80;0.80;;;22.70;81.00;;;;;;5105010;28;20241;-84
2023/07/01 05:08:55;;;;;;;0.40;0.40;;;22.80;81.00;;;;;;5096699;27;20197;-82
2023/07/01 05:11:25;;;;;;;0.47;0.47;;;22.80;80.80;;;;;;5102828;27;20536;-83
2023/07/01 05:13:54;;;;;;;8.07;0.52;;;22.90;81.00;;;;;;5112120;27;20189;-83
2023/07/01 05:16:22;;;;;;;1.45;0.80;;;23.00;80.90;;;;;;5099234;28;20572;-82
2023/07/01 05:18:51;;;;;;;1.15;1.05;;;23.00;80.70;;;;;;5107790;27;20189;-84
2023/07/01 05:21:19;;;;;;;0.38;0.38;;;23.10;80.50;;;;;;5103826;27;22519;-83
2023/07/01 05:23:47;;;;;;;0.40;0.40;;;23.20;80.50;;;;;;5112307;27;20189;-83
2023/07/01 05:26:16;;;;;;;0.22;0.22;;;23.20;80.40;;;;;;5090542;28;20232;-84
2023/07/01 05:28:46;;;;;;;0.55;0.55;;;23.30;81.10;;;;;;5096483;27;20223;-84
2023/07/01 05:31:15;;;;;;;0.60;0.60;;;23.40;80.30;;;;;;5104347;28;20189;-83
2023/07/01 05:33:45;;;;;;;0.43;0.43;;;23.40;80.20;;;;;;5097254;28;20794;-82
2023/07/01 05:36:13;;;;;;;0.70;0.70;;;23.50;80.10;;;;;;5114637;27;20519;-83
2023/07/01 05:38:42;;;;;;;0.70;0.70;;;23.60;80.00;;;;;;5094226;28;20208;-83
2023/07/01 05:41:11;;;;;;;0.77;0.60;;;23.60;79.90;;;;;;5098061;27;20196;-82
2023/07/01 05:43:42;;;;;;;0.55;0.55;;;23.80;79.90;;;;;;5107980;27;20224;-83
2023/07/01 05:46:12;;;;;;;1.00;0.95;;;23.80;79.70;;;;;;5090778;28;20220;-83
2023/07/01 05:48:42;;;;;;;4.22;1.30;;;23.90;79.50;;;;;;5092065;28;20217;-86
2023/07/01 05:51:11;;;;;;;1.55;0.50;;;24.00;79.20;;;;;;5101730;28;20276;-83
2023/07/01 05:53:39;;;;;;;1.30;0.60;;;24.10;80.00;;;;;;5103257;28;20192;-84
2023/07/01 05:56:07;;;;;;;0.40;0.40;;;24.10;79.10;;;;;;5101119;28;20291;-82
2023/07/01 05:58:36;;;;;;;0.45;0.40;;;24.20;79.10;;;;;;5097902;28;20201;-84
2023/07/01 06:01:04;;;;;;;0.40;0.40;;;24.30;78.90;;;;;;5095014;28;20540;-83
2023/07/01 06:03:34;;;;;;;0.55;0.50;;;24.40;78.70;;;;;;5091714;28;20193;-83
2023/07/01 06:06:02;;;;;;;1.35;0.82;;;24.50;78.40;;;;;;5096140;28;20645;-84
2023/07/01 06:08:31;;;;;;;1.65;1.17;;;24.60;76.70;;;;;;5090455;28;20197;-84
2023/07/01 06:10:59;;;;;;;0.25;0.25;;;24.60;76.70;;;;;;5098217;28;20646;-82
2023/07/01 06:13:28;;;;;;;0.98;0.75;;;24.70;76.10;;;;;;5094606;28;20197;-83
2023/07/01 06:15:56;;;;;;;0.47;0.40;;;24.80;75.20;;;;;;5110645;28;20193;-83
2023/07/01 06:18:25;;;;;;;0.20;0.20;;;24.90;75.00;;;;;;5096436;28;20408;-84
2023/07/01 06:20:55;;;;;;;4.35;0.65;;;25.00;75.00;;;;;;5095516;28;20198;-82
2023/07/01 06:23:23;;;;;;;0.30;0.30;;;25.10;74.60;;;;;;5104401;27;20198;-82
2023/07/01 06:25:51;;;;;;;0.20;0.20;;;25.20;74.30;;;;;;5113697;27;20583;-84
2023/07/01 06:28:20;;;;;;;0.20;0.20;;;25.30;73.90;;;;;;5101154;27;20208;-83
2023/07/01 06:30:48;;;;;;;0.45;0.45;;;25.40;73.00;;;;;;5096131;28;20216;-83
2023/07/01 06:33:17;;;;;;;1.95;0.52;;;25.40;71.90;;;;;;5111026;27;20185;-84
2023/07/01 06:35:45;;;;;;;0.50;0.50;;;25.50;72.40;;;;;;5113709;27;20205;-83
2023/07/01 06:38:15;;;;;;;0.32;0.32;;;25.60;72.40;;;;;;5113504;27;22213;-83
2023/07/01 06:40:43;;;;;;;0.20;0.20;;;25.70;72.20;;;;;;5096921;27;20197;-83
2023/07/01 06:43:12;;;;;;;0.85;0.75;;;25.80;71.90;;;;;;5106872;27;20617;-84
2023/07/01 06:45:41;;;;;;;0.52;0.30;;;25.80;71.30;;;;;;5100463;28;22662;-82
2023/07/01 06:48:10;;;;;;;1.85;0.65;;;25.90;71.50;;;;;;5110218;27;20212;-82
2023/07/01 06:50:38;;;;;;;0.57;0.57;;;26.00;71.50;;;;;;5106774;27;20239;-84
2023/07/01 06:53:07;;;;;;;0.38;0.38;;;26.10;71.40;;;;;;5097700;28;20578;-83
2023/07/01 06:55:37;;;;;;;0.30;0.30;;;26.20;71.30;;;;;;5094100;28;20222;-81
2023/07/01 06:58:05;;;;;;;0.45;0.45;;;26.20;71.30;;;;;;5108063;28;20208;-84
2023/07/01 07:00:33;;;;;;;2.08;0.40;;;26.30;71.20;;;;;;5105783;28;21101;-80
2023/07/01 07:03:03;;;;;;;0.35;0.35;;;26.40;71.00;;;;;;5095344;28;20616;-84
2023/07/01 07:05:32;;;;;;;1.00;0.75;;;26.50;70.70;;;;;;5104471;28;20444;-84
2023/07/01 07:08:01;;;;;;;0.85;0.70;;;26.50;70.20;;;;;;5096432;27;20588;-84
2023/07/01 07:10:30;;;;;;;0.43;0.43;;;26.60;70.30;;;;;;5104344;27;20200;-84
2023/07/01 07:12:59;;;;;;;0.30;0.30;;;26.60;69.70;;;;;;5092406;28;20243;-84
2023/07/01 07:15:27;;;;;;;2.10;0.73;;;26.70;69.50;;;;;;5106114;27;20205;-85
2023/07/01 07:17:56;;;;;;;0.47;0.47;;;26.80;69.40;;;;;;5096916;27;20603;-83
2023/07/01 07:20:25;;;;;;;0.55;0.55;;;26.80;68.70;;;;;;5101901;28;20255;-83
2023/07/01 07:22:53;;;;;;;0.40;0.40;;;26.90;68.40;;;;;;5095239;28;20220;-83
2023/07/01 07:25:22;;;;;;;0.17;0.17;;;26.90;68.50;;;;;;5096942;28;20194;-82
2023/07/01 07:27:50;;;;;;;0.82;0.50;;;27.00;68.30;;;;;;5092806;28;20267;-82
2023/07/01 07:30:20;;;;;;;0.30;0.30;;;27.00;67.90;;;;;;5096634;27;20201;-82
2023/07/01 07:32:49;;;;;;;3.95;1.02;;;27.10;68.00;;;;;;5107391;27;20559;-83
2023/07/01 07:35:17;;;;;;;0.80;0.80;;;27.20;67.70;;;;;;5114019;27;20212;-84
2023/07/01 07:37:46;;;;;;;0.75;0.55;;;27.20;67.40;;;;;;5094330;27;20209;-83
2023/07/01 07:40:14;;;;;;;1.70;0.38;;;27.30;67.00;;;;;;5106449;27;20562;-84
2023/07/01 07:42:43;;;;;;;0.35;0.35;;;27.30;66.40;;;;;;5101338;27;20193;-84
2023/07/01 07:45:17;;;;;;;0.55;0.43;;;27.30;65.80;;;;;;5103677;27;20201;-82
2023/07/01 07:47:47;;;;;;;0.20;0.20;;;27.40;65.50;;;;;;5102439;27;20213;-82
2023/07/01 07:50:20;;;;;;;0.25;0.25;;;27.40;65.70;;;;;;5095938;27;20190;-83
2023/07/01 07:52:50;;;;;;;0.82;0.82;;;27.50;65.70;;;;;;5111012;27;20313;-82
2023/07/01 07:55:19;;;;;;;0.20;0.20;;;27.50;64.90;;;;;;5094998;27;20185;-82
2023/07/01 07:57:48;;;;;;;0.30;0.30;;;27.60;64.60;;;;;;5103627;27;20192;-82
2023/07/01 08:00:17;;;;;;;5.43;1.20;;;27.70;64.80;;;;;;5100961;27;20196;-81
2023/07/01 08:02:49;;;;;;;0.30;0.30;;;27.70;62.80;;;;;;5097915;27;20190;-86
2023/07/01 08:05:21;;;;;;;0.43;0.43;;;27.70;62.00;;;;;;5088482;27;20201;-82
2023/07/01 08:07:49;;;;;;;0.43;0.30;;;27.80;61.90;;;;;;5102159;28;20602;-81
2023/07/01 08:10:18;;;;;;;1.13;0.85;;;27.80;61.50;;;;;;5099630;28;21842;-82
2023/07/01 08:12:46;;;;;;;0.65;0.43;;;27.80;60.60;;;;;;5108737;27;20189;-86
2023/07/01 08:15:14;;;;;;;0.30;0.25;;;27.80;59.80;;;;;;5098476;28;20190;-80
2023/07/01 08:17:43;;;;;;;0.40;0.40;;;27.90;60.80;;;;;;5091598;28;20190;-84
2023/07/01 08:20:13;;;;;;;0.30;0.30;;;27.90;60.60;;;;;;5099736;28;20191;-81
2023/07/01 08:22:41;;;;;;;1.15;0.82;;;28.00;60.00;;;;;;5096767;28;20601;-83
2023/07/01 08:25:10;;;;;;;0.75;0.75;;;28.00;59.50;;;;;;5103168;28;20189;-86
2023/07/01 08:27:38;;;;;;;0.32;0.32;;;28.00;58.70;;;;;;5101644;27;20807;-83
2023/07/01 08:30:08;;;;;;;0.32;0.30;;;28.00;58.90;;;;;;5091647;28;20221;-83
2023/07/01 08:32:36;;;;;;;0.30;0.30;;;28.10;58.50;;;;;;5097625;28;20197;-84
2023/07/01 08:35:05;;;;;;;0.30;0.30;;;28.10;58.60;;;;;;5091010;28;20281;-84
2023/07/01 08:37:35;;;;;;;0.30;0.30;;;28.10;58.90;;;;;;5094183;27;20203;-85
2023/07/01 08:40:05;;;;;;;0.20;0.20;;;28.20;58.90;;;;;;5109325;28;20190;-83
2023/07/01 08:42:42;;;;;;;0.30;0.30;;;28.20;59.20;;;;;;5093247;27;20236;-81
2023/07/01 08:45:11;;;;;;;0.55;0.55;;;28.30;59.10;;;;;;5106576;27;20277;-82
2023/07/01 08:47:41;;;;;;;1.23;0.65;;;28.20;57.50;;;;;;5106832;27;20223;-83
2023/07/01 08:50:11;;;;;;;0.30;0.30;;;28.30;57.70;;;;;;5105522;27;20247;-84
2023/07/01 08:52:45;;;;;;;0.60;0.60;;;28.30;58.30;;;;;;5103470;27;20189;-83
2023/07/01 08:55:14;;;;;;;0.30;0.30;;;28.40;58.50;;;;;;5102835;28;20235;-82
2023/07/01 08:57:42;;;;;;;0.40;0.30;;;28.50;58.90;;;;;;5094141;28;20193;-84
2023/07/01 09:00:13;;;;;;;0.38;0.38;;;28.50;59.00;;;;;;5099216;27;20202;-84
2023/07/01 09:02:43;;;;;;;0.30;0.30;;;28.60;58.80;;;;;;5104100;27;20600;-81
2023/07/01 09:05:11;;;;;;;0.73;0.73;;;28.60;58.30;;;;;;5107342;27;20193;-80
2023/07/01 09:07:43;;;;;;;1.70;1.20;;;28.60;57.30;;;;;;5095998;28;20244;-83
2023/07/01 09:10:13;;;;;;;0.28;0.28;;;28.70;57.10;;;;;;5109489;27;20189;-83
2023/07/01 09:12:41;;;;;;;0.98;0.40;;;28.70;55.90;;;;;;5094989;28;20197;-83
2023/07/01 09:15:10;;;;;;;0.63;0.60;;;28.80;55.50;;;;;;5094645;27;20281;-82
2023/07/01 09:17:40;;;;;;;0.28;0.28;;;28.80;55.70;;;;;;5107951;27;20200;-84
2023/07/01 09:20:10;;;;;;;0.52;0.52;;;28.90;56.00;;;;;;5100639;28;20201;-84
2023/07/01 09:22:40;;;;;;;0.47;0.40;;;28.90;55.70;;;;;;5096065;27;20619;-82
2023/07/01 09:25:25;;;;;;;0.30;0.30;;;29.00;56.00;;;;;;5103123;27;20272;-83
2023/07/01 09:27:54;;;;;;;1.63;0.75;;;29.00;55.50;;;;;;5092135;28;20214;-83
2023/07/01 09:30:26;;;;;;;0.63;0.47;;;29.10;56.10;;;;;;5090508;28;20197;-83
2023/07/01 09:33:11;;;;;;;1.25;0.70;;;29.10;56.20;;;;;;5095809;27;20740;-83
2023/07/01 09:35:43;;;;;;;0.30;0.30;;;29.10;55.00;;;;;;5090536;28;20189;-82
2023/07/01 09:38:13;;;;;;;0.50;0.50;;;29.20;55.60;;;;;;5092210;27;20202;-83
2023/07/01 09:40:43;;;;;;;0.57;0.35;;;29.20;55.50;;;;;;5098301;27;20220;-84
2023/07/01 09:43:14;;;;;;;1.25;1.15;;;29.30;56.20;;;;;;5092945;27;20197;-86
2023/07/01 09:45:53;;;;;;;0.70;0.70;;;29.40;55.90;;;;;;5092234;28;20745;-85
2023/07/01 09:48:22;;;;;;;0.22;0.22;;;29.40;55.30;;;;;;5089666;28;20248;-85
2023/07/01 09:50:51;;;;;;;0.50;0.40;;;29.50;55.40;;;;;;5094745;28;20193;-85
2023/07/01 09:53:21;;;;;;;0.38;0.30;;;29.60;55.80;;;;;;5087641;28;20630;-85
2023/07/01 09:55:51;;;;;;;0.95;0.90;;;29.60;55.50;;;;;;5092047;28;20196;-84
2023/07/01 09:58:20;;;;;;;0.25;0.25;;;29.60;55.00;;;;;;5096491;27;20197;-85
2023/07/01 10:00:49;;;;;;;0.20;0.20;;;29.70;55.30;;;;;;5090851;27;20208;-85
2023/07/01 10:03:19;;;;;;;0.57;0.57;;;29.70;55.50;;;;;;5099107;27;20197;-82
2023/07/01 10:05:50;;;;;;;0.40;0.40;;;29.80;55.00;;;;;;5110217;27;20195;-84
2023/07/01 10:08:19;;;;;;;0.40;0.40;;;29.80;54.80;;;;;;5098323;28;20207;-83
2023/07/01 10:11:01;;;;;;;0.40;0.40;;;29.90;54.40;;;;;;5112453;27;20287;-84
2023/07/01 10:13:31;;;;;;;0.55;0.47;;;29.90;53.80;;;;;;5093650;27;20202;-84
2023/07/01 10:16:02;;;;;;;2.05;0.40;;;29.90;53.00;;;;;;5096976;27;20655;-83
2023/07/01 10:18:31;;;;;;;0.40;0.40;;;30.00;52.20;;;;;;5101828;27;20213;-83
2023/07/01 10:21:27;;;;;;;0.32;0.32;;;30.00;52.30;;;;;;5101248;27;20193;-83
2023/07/01 10:23:57;;;;;;;0.50;0.50;;;30.10;52.20;;;;;;5090597;27;20194;-84
2023/07/01 10:26:37;;;;;;;2.38;0.95;;;30.10;52.00;;;;;;5107561;27;20200;-83
2023/07/01 10:29:40;;;;;;;7.75;0.50;;;30.20;52.60;;;;;;5100391;27;21665;-83
2023/07/01 10:32:29;;;;;;;0.38;0.38;;;30.30;52.80;;;;;;5094563;27;20201;-83
2023/07/01 10:35:15;;;;;;;0.50;0.47;;;30.30;52.70;;;;;;5104292;27;20202;-84
2023/07/01 10:37:44;;;;;;;0.40;0.40;;;30.30;52.80;;;;;;5101779;28;20189;-84
2023/07/01 10:40:41;;;;;;;2.20;0.40;;;30.40;53.00;;;;;;5098375;28;20535;-84
2023/07/01 10:43:29;;;;;;;0.63;0.60;;;30.50;52.60;;;;;;5105519;27;20212;-83
2023/07/01 10:46:14;;;;;;;0.45;0.45;;;30.50;52.80;;;;;;5103332;27;20194;-83
2023/07/01 10:48:44;;;;;;;0.40;0.40;;;30.60;52.70;;;;;;5098057;27;20448;-84
2023/07/01 10:51:13;;;;;;;0.30;0.30;;;30.70;52.40;;;;;;5099653;28;20198;-85
2023/07/01 10:54:02;;;;;;;0.80;0.57;;;30.70;51.30;;;;;;5100744;27;20212;-84
2023/07/01 10:56:32;;;;;;;0.20;0.20;;;30.80;52.10;;;;;;5101843;28;20220;-83
2023/07/01 10:59:21;;;;;;;1.30;0.47;;;30.80;52.10;;;;;;5106561;27;20190;-84
2023/07/01 11:01:51;;;;;;;0.30;0.30;;;30.80;52.10;;;;;;5101623;28;20201;-85
2023/07/01 11:04:22;;;;;;;0.40;0.40;;;30.90;52.30;;;;;;5110092;27;20197;-84
2023/07/01 11:06:52;;;;;;;3.85;0.70;;;31.00;52.40;;;;;;5103781;28;20237;-84
2023/07/01 11:09:29;;;;;;;0.57;0.50;;;31.00;52.50;;;;;;5096331;28;20304;-85
2023/07/01 11:11:58;;;;;;;0.40;0.40;;;31.10;52.30;;;;;;5096961;27;20189;-85
2023/07/01 11:14:33;;;;;;;1.60;0.57;;;31.00;50.60;;;;;;5106301;27;20710;-86
2023/07/01 11:17:13;;;;;;;0.40;0.40;;;31.10;50.40;;;;;;5102276;28;20185;-85
2023/07/01 11:19:44;;;;;;;3.03;0.60;;;31.10;50.80;;;;;;5100746;27;20547;-84
2023/07/01 11:22:13;;;;;;;0.40;0.40;;;31.10;49.90;;;;;;5104434;28;20193;-84
2023/07/01 11:24:42;;;;;;;1.65;0.88;;;31.20;50.30;;;;;;5114974;27;20260;-85
2023/07/01 11:27:11;;;;;;;0.43;0.43;;;31.20;50.20;;;;;;5102481;27;20196;-85
2023/07/01 11:29:47;;;;;;;0.47;0.47;;;31.30;50.00;;;;;;5108590;28;20589;-85
2023/07/01 11:32:17;;;;;;;0.52;0.52;;;31.30;50.00;;;;;;5091382;27;20192;-85
2023/07/01 11:34:49;;;;;;;0.30;0.30;;;31.40;50.40;;;;;;5099765;27;20190;-85
2023/07/01 11:37:28;;;;;;;0.60;0.60;;;31.40;49.80;;;;;;5103669;27;20193;-85
2023/07/01 11:39:56;;;;;;;1.55;0.40;;;31.40;49.40;;;;;;5096609;28;20204;-86
2023/07/01 11:42:27;;;;;;;0.45;0.45;;;31.40;49.00;;;;;;5105544;27;20966;-85
2023/07/01 11:44:57;;;;;;;0.30;0.30;;;31.50;49.20;;;;;;5112285;28;20822;-84
2023/07/01 11:47:25;;;;;;;0.75;0.73;;;31.50;49.90;;;;;;5102378;27;20194;-84
2023/07/01 11:49:53;;;;;;;1.83;1.02;;;31.50;48.50;;;;;;5101420;27;20213;-83
2023/07/01 11:52:25;;;;;;;0.63;0.63;;;31.50;48.90;;;;;;5107904;27;20653;-85
2023/07/01 11:54:54;;;;;;;0.32;0.32;;;31.60;49.20;;;;;;5112678;27;20194;-84
2023/07/01 11:57:24;;;;;;;0.40;0.40;;;31.70;49.60;;;;;;5102880;27;20228;-86
2023/07/01 11:59:56;;;;;;;0.20;0.20;;;31.70;49.70;;;;;;5103275;28;20205;-84
2023/07/01 12:02:29;;;;;;;0.30;0.30;;;31.80;49.70;;;;;;5106441;27;20642;-84
2023/07/01 12:04:58;;;;;;;0.82;0.47;;;31.90;49.50;;;;;;5093638;28;20193;-84
2023/07/01 12:07:27;;;;;;;0.40;0.40;;;31.90;49.70;;;;;;5106773;27;20637;-84
2023/07/01 12:09:56;;;;;;;1.25;0.73;;;32.00;50.00;;;;;;5100385;27;20698;-86
2023/07/01 12:12:38;;;;;;;1.33;1.05;;;32.00;50.00;;;;;;5097587;28;20197;-86
2023/07/01 12:15:09;;;;;;;1.35;0.50;;;32.10;49.20;;;;;;5103897;27;20199;-84
2023/07/01 12:17:39;;;;;;;0.35;0.35;;;32.10;49.60;;;;;;5108208;27;20478;-83
2023/07/01 12:20:09;;;;;;;0.43;0.40;;;32.20;49.60;;;;;;5095277;28;21984;-85
2023/07/01 12:22:38;;;;;;;0.40;0.40;;;32.10;48.20;;;;;;5103299;27;20200;-87
2023/07/01 12:25:08;;;;;;;1.00;0.60;;;32.10;46.80;;;;;;5105958;27;20642;-87
2023/07/01 12:27:36;;;;;;;1.60;0.52;;;32.20;46.80;;;;;;5102893;27;20572;-86
2023/07/01 12:30:07;;;;;;;1.15;1.05;;;32.30;46.80;;;;;;5097368;28;20224;-87
2023/07/01 12:32:41;;;;;;;0.73;0.60;;;32.40;47.30;;;;;;5097635;28;20189;-87
2023/07/01 12:35:10;;;;;;;0.20;0.20;;;32.50;47.40;;;;;;5105642;28;20186;-87
2023/07/01 12:37:40;;;;;;;0.20;0.20;;;32.60;47.60;;;;;;5096515;28;20206;-88
2023/07/01 12:40:10;;;;;;;0.65;0.47;;;32.60;47.90;;;;;;5102013;28;20192;-87
2023/07/01 12:42:38;;;;;;;0.30;0.30;;;32.80;48.40;;;;;;5099113;27;20202;-87
2023/07/01 12:45:08;;;;;;;0.57;0.57;;;33.00;48.60;;;;;;5098407;28;20181;-86
2023/07/01 12:47:41;;;;;;;0.75;0.70;;;33.10;48.60;;;;;;5091793;28;20190;-85
2023/07/01 12:50:11;;;;;;;0.52;0.50;;;33.30;47.80;;;;;;5094048;27;20217;-85
2023/07/01 12:52:39;;;;;;;0.30;0.30;;;33.40;46.70;;;;;;5108005;27;20200;-84
2023/07/01 12:55:11;;;;;;;2.40;1.17;;;33.50;47.00;;;;;;5093090;28;20202;-84
2023/07/01 12:57:40;;;;;;;0.82;0.82;;;33.50;45.00;;;;;;5096132;27;20212;-85
2023/07/01 13:00:10;;;;;;;0.40;0.40;;;33.50;45.10;;;;;;5104871;27;20650;-86
2023/07/01 13:02:39;;;;;;;0.47;0.38;;;33.40;44.80;;;;;;5092734;28;20189;-85
2023/07/01 13:05:10;;;;;;;0.77;0.73;;;33.40;45.20;;;;;;5095821;27;20312;-85